Time;durP1;ratioP1;P1;durP2;ratioP2;P2;SDS_P1;SDS_P2;PMS_P1;PMS_P2;Temp;Humidity;BMP_temperature;BMP_pressure;BME280_temperature;BME280_humidity;BME280_pressure;Samples;Min_cycle;Max_cycle;Signal;HPM_P1;HPM_P2
2023/01/03 00:00:13;;;;;;;19.73;2.60;;;;;;;;;;4901905;29;20135;-80
2023/01/03 00:02:39;;;;;;;14.15;3.00;;;;;;;;;;4902212;29;20167;-80
2023/01/03 00:05:05;;;;;;;21.08;2.92;;;;;;;;;;4886757;29;20059;-80
2023/01/03 00:07:34;;;;;;;18.20;2.78;;;;;;;;;;4901449;29;20050;-80
2023/01/03 00:10:01;;;;;;;19.73;2.85;;;;;;;;;;4901685;29;20519;-80
2023/01/03 00:12:28;;;;;;;16.10;2.35;;;;;;;;;;4901677;29;20112;-80
2023/01/03 00:14:54;;;;;;;9.80;3.00;;;;;;;;;;4885966;29;20055;-80
2023/01/03 00:17:20;;;;;;;9.02;2.20;;;;;;;;;;4886239;29;20075;-80
2023/01/03 00:19:47;;;;;;;21.40;3.28;;;;;;;;;;4886144;29;20044;-80
2023/01/03 00:22:14;;;;;;;13.85;3.03;;;6.00;99.90;;;;;;4901754;29;20059;-80
2023/01/03 00:24:41;;;;;;;22.50;2.97;;;;;;;;;;4886213;29;20044;-80
2023/01/03 00:27:07;;;;;;;7.50;2.92;;;;;;;;;;4901604;29;20520;-80
2023/01/03 00:29:33;;;;;;;10.02;3.03;;;;;;;;;;4885972;29;20052;-80
2023/01/03 00:31:59;;;;;;;11.15;2.67;;;;;;;;;;4901469;29;20052;-80
2023/01/03 00:34:26;;;;;;;12.65;2.97;;;;;;;;;;4901662;29;20047;-80
2023/01/03 00:36:52;;;;;;;8.98;2.33;;;;;;;;;;4885730;29;20044;-80
2023/01/03 00:39:18;;;;;;;9.18;2.67;;;;;;;;;;4916826;29;20095;-80
2023/01/03 00:41:44;;;;;;;15.23;3.45;;;;;;;;;;4901488;29;20043;-80
2023/01/03 00:44:10;;;;;;;7.38;2.80;;;;;;;;;;4901003;29;20044;-79
2023/01/03 00:46:36;;;;;;;11.48;3.22;;;;;;;;;;4901122;29;20046;-80
2023/01/03 00:49:03;;;;;;;14.15;3.28;;;;;;;;;;4885527;29;20052;-79
2023/01/03 00:51:31;;;;;;;9.15;2.70;;;6.20;99.90;;;;;;4900994;29;20051;-80
2023/01/03 00:53:59;;;;;;;9.32;2.45;;;6.10;99.90;;;;;;4900908;29;20063;-80
2023/01/03 00:56:26;;;;;;;8.15;3.15;;;;;;;;;;4900877;29;20488;-79
2023/01/03 00:58:52;;;;;;;11.65;2.75;;;;;;;;;;4901022;29;20048;-80
2023/01/03 01:01:21;;;;;;;8.73;2.80;;;;;;;;;;4900890;29;20044;-80
2023/01/03 01:03:48;;;;;;;8.75;3.75;;;;;;;;;;4900878;29;20100;-80
2023/01/03 01:06:16;;;;;;;13.07;3.08;;;;;;;;;;4900200;29;20556;-80
2023/01/03 01:08:42;;;;;;;15.65;3.50;;;;;;;;;;4900196;29;20047;-80
2023/01/03 01:11:09;;;;;;;20.02;3.33;;;6.00;99.90;;;;;;4900828;29;20437;-80
2023/01/03 01:13:36;;;;;;;10.60;4.20;;;;;;;;;;4885349;29;20134;-80
2023/01/03 01:16:12;;;;;;;13.40;3.80;;;6.00;99.90;;;;;;4900680;29;20044;-80
2023/01/03 01:18:39;;;;;;;16.90;3.90;;;5.90;99.90;;;;;;4900074;29;20131;-80
2023/01/03 01:21:06;;;;;;;14.32;3.30;;;5.90;99.90;;;;;;4900767;29;20181;-80
2023/01/03 01:23:35;;;;;;;15.15;4.57;;;6.10;99.90;;;;;;4900728;29;20048;-80
2023/01/03 01:26:02;;;;;;;10.50;3.00;;;6.10;99.90;;;;;;4900499;29;20040;-79
2023/01/03 01:28:29;;;;;;;16.13;2.67;;;;;;;;;;4900586;29;20123;-80
2023/01/03 01:30:57;;;;;;;7.25;2.33;;;;;;;;;;4900639;29;20209;-80
2023/01/03 01:33:23;;;;;;;12.40;2.50;;;;;;;;;;4884863;29;20146;-80
2023/01/03 01:35:49;;;;;;;20.63;3.10;;;;;;;;;;4900391;29;20467;-79
2023/01/03 01:38:15;;;;;;;14.82;2.58;;;;;;;;;;4900266;29;20099;-80
2023/01/03 01:40:41;;;;;;;15.55;3.88;;;;;;;;;;4900428;29;20384;-80
2023/01/03 01:46:11;;;;;;;14.00;2.42;;;6.10;99.90;;;;;;4900586;29;20048;-80
2023/01/03 01:48:38;;;;;;;10.25;2.15;;;;;;;;;;4900108;29;20044;-80
2023/01/03 01:51:05;;;;;;;9.63;2.33;;;;;;;;;;4899989;29;20487;-80
2023/01/03 01:53:34;;;;;;;6.43;1.95;;;6.00;99.90;;;;;;4884287;29;20489;-80
2023/01/03 01:56:18;;;;;;;9.40;2.22;;;5.90;99.90;;;;;;4897032;29;20052;-80
2023/01/03 01:58:45;;;;;;;13.70;2.45;;;;;;;;;;4897737;29;20048;-79
2023/01/03 02:01:12;;;;;;;9.88;2.38;;;;;;;;;;4899597;29;20488;-80
2023/01/03 02:03:40;;;;;;;5.72;2.05;;;;;;;;;;4899807;29;20040;-80
2023/01/03 02:06:08;;;;;;;13.10;2.92;;;;;;;;;;4900667;29;20101;-80
2023/01/03 02:08:34;;;;;;;11.15;2.45;;;;;;;;;;4900035;29;20127;-80
2023/01/03 02:11:21;;;;;;;5.20;1.73;;;;;;;;;;4884767;29;20200;-80
2023/01/03 02:13:50;;;;;;;10.23;2.17;;;5.70;99.90;;;;;;4899839;29;20043;-80
2023/01/03 02:16:19;;;;;;;12.98;2.20;;;;;;;;;;4899948;29;20039;-79
2023/01/03 02:18:48;;;;;;;6.22;1.98;;;;;;;;;;4899954;29;20051;-80
2023/01/03 02:21:26;;;;;;;12.98;2.70;;;;;;;;;;4899834;29;20043;-80
2023/01/03 02:24:26;;;;;;;10.40;2.90;;;5.50;99.90;;;;;;4900244;29;20088;-80
2023/01/03 02:27:04;;;;;;;11.63;3.72;;;;;;;;;;4900234;29;20052;-80
2023/01/03 02:29:42;;;;;;;9.60;3.05;;;5.50;99.90;;;;;;4899972;29;20040;-80
2023/01/03 02:32:14;;;;;;;17.05;4.30;;;;;;;;;;4888111;29;20131;-79
2023/01/03 02:34:49;;;;;;;10.90;2.85;;;;;;;;;;4903559;29;20047;-80
2023/01/03 02:37:15;;;;;;;6.38;2.95;;;;;;;;;;4903546;29;20048;-79
2023/01/03 02:40:19;;;;;;;10.75;3.15;;;5.50;99.90;;;;;;4903462;29;20511;-80
2023/01/03 02:42:57;;;;;;;12.63;3.42;;;;;;;;;;4887965;29;20092;-80
2023/01/03 02:45:29;;;;;;;8.30;3.80;;;;;;;;;;4903345;29;20044;-80
2023/01/03 02:48:03;;;;;;;11.48;3.03;;;;;;;;;;4903300;29;20044;-80
2023/01/03 02:50:36;;;;;;;13.00;3.92;;;5.00;99.90;;;;;;4903517;29;20044;-79
2023/01/03 02:53:07;;;;;;;12.65;4.03;;;5.10;99.90;;;;;;4887634;29;20051;-79
2023/01/03 02:55:34;;;;;;;8.88;3.30;;;;;;;;;;4887620;29;20064;-79
2023/01/03 02:58:03;;;;;;;9.13;3.53;;;5.00;99.90;;;;;;4903833;29;20350;-80
2023/01/03 03:00:31;;;;;;;7.90;3.45;;;4.90;99.90;;;;;;4903321;29;20397;-80
2023/01/03 03:03:02;;;;;;;8.70;3.33;;;5.00;99.90;;;;;;4903302;29;20552;-80
2023/01/03 03:05:32;;;;;;;14.02;4.00;;;4.90;99.90;;;;;;4887801;29;20075;-79
2023/01/03 03:07:59;;;;;;;11.27;3.45;;;;;;;;;;4903182;29;20036;-80
2023/01/03 03:13:21;;;;;;;13.75;4.20;;;4.80;99.90;;;;;;4902846;29;20095;-80
2023/01/03 03:16:13;;;;;;;11.43;4.30;;;4.90;99.90;;;;;;4903512;29;20112;-80
2023/01/03 03:19:00;;;;;;;12.02;3.50;;;4.90;99.90;;;;;;4902592;29;20054;-79
2023/01/03 03:30:06;;;;;;;12.52;3.22;;;;;;;;;;4867948;29;20079;-79
2023/01/03 03:32:35;;;;;;;14.57;3.65;;;4.70;99.90;;;;;;4902713;29;20143;-80
2023/01/03 03:35:03;;;;;;;8.60;3.53;;;4.60;99.90;;;;;;4902313;29;20480;-80
2023/01/03 03:37:30;;;;;;;12.57;3.95;;;;;;;;;;4885996;29;20563;-80
2023/01/03 03:46:02;;;;;;;8.52;3.63;;;;;;;;;;4899540;29;20044;-79
2023/01/03 03:51:32;;;;;;;11.60;3.83;;;;;;;;;;4902038;29;20054;-80
2023/01/03 03:54:04;;;;;;;11.88;3.97;;;4.90;99.90;;;;;;4901944;29;20040;-80
2023/01/03 03:56:33;;;;;;;7.75;3.50;;;;;;;;;;4902137;29;20086;-80
2023/01/03 03:59:02;;;;;;;13.43;4.43;;;;;;;;;;4902005;29;20060;-80
2023/01/03 04:01:28;;;;;;;16.17;4.40;;;4.70;99.90;;;;;;4886477;29;20043;-80
2023/01/03 04:04:01;;;;;;;16.38;3.97;;;4.90;99.90;;;;;;4901964;29;20122;-80
2023/01/03 04:06:32;;;;;;;15.95;4.68;;;4.70;99.90;;;;;;4886337;29;20477;-80
2023/01/03 04:08:58;;;;;;;7.13;4.05;;;;;;;;;;4901948;29;20048;-80
2023/01/03 04:11:24;;;;;;;13.88;4.93;;;;;;;;;;4886237;29;20040;-79
2023/01/03 04:13:50;;;;;;;10.57;4.50;;;;;;;;;;4886082;29;20047;-80
2023/01/03 04:16:17;;;;;;;16.33;4.57;;;;;;;;;;4886306;29;20040;-80
2023/01/03 04:18:43;;;;;;;17.77;4.60;;;;;;;;;;4886182;29;20397;-80
2023/01/03 04:21:09;;;;;;;8.02;3.90;;;;;;;;;;4901428;29;20052;-80
2023/01/03 04:23:35;;;;;;;12.02;4.25;;;;;;;;;;4901821;29;20130;-80
2023/01/03 04:26:02;;;;;;;10.13;4.30;;;;;;;;;;4901590;29;20044;-80
2023/01/03 04:28:28;;;;;;;14.75;4.72;;;;;;;;;;4901485;29;20489;-79
2023/01/03 04:30:54;;;;;;;12.77;4.53;;;;;;;;;;4901522;29;20106;-80
2023/01/03 04:33:20;;;;;;;13.30;4.30;;;;;;;;;;4886151;29;20083;-80
2023/01/03 04:35:46;;;;;;;12.32;4.45;;;;;;;;;;4885860;29;20079;-79
2023/01/03 04:38:12;;;;;;;14.05;4.60;;;;;;;;;;4901433;29;20076;-79
2023/01/03 04:40:38;;;;;;;15.23;5.15;;;;;;;;;;4901249;29;20048;-79
2023/01/03 04:45:49;;;;;;;11.23;4.70;;;;;;;;;;4901364;29;20041;-80
2023/01/03 04:48:15;;;;;;;18.08;5.30;;;;;;;;;;4885562;29;20544;-79
2023/01/03 04:50:41;;;;;;;10.80;4.90;;;;;;;;;;4901336;29;20039;-79
2023/01/03 04:53:07;;;;;;;22.70;5.40;;;;;;;;;;4901339;29;20047;-80
2023/01/03 04:55:33;;;;;;;11.90;5.43;;;;;;;;;;4901055;29;20112;-80
2023/01/03 04:58:00;;;;;;;15.07;5.72;;;4.60;99.90;;;;;;4885452;29;20059;-80
2023/01/03 05:00:26;;;;;;;14.73;5.03;;;;;;;;;;4900876;29;20086;-80
2023/01/03 05:02:52;;;;;;;13.93;6.22;;;;;;;;;;4901109;29;20047;-80
2023/01/03 05:05:18;;;;;;;18.60;5.82;;;;;;;;;;4885290;29;20048;-80
2023/01/03 05:07:44;;;;;;;13.85;5.93;;;;;;;;;;4900956;29;20156;-79
2023/01/03 05:10:10;;;;;;;15.27;5.93;;;;;;;;;;4900800;29;20084;-80
2023/01/03 05:12:36;;;;;;;21.08;5.93;;;;;;;;;;4901167;29;20051;-80
2023/01/03 05:15:02;;;;;;;16.13;6.60;;;;;;;;;;4900670;29;20048;-80
2023/01/03 05:17:28;;;;;;;21.35;6.75;;;;;;;;;;4885149;29;20044;-79
2023/01/03 05:28:08;;;;;;;14.65;6.47;;;;;;;;;;4900723;29;20392;-80
2023/01/03 05:30:34;;;;;;;18.00;6.88;;;;;;;;;;4884986;29;20055;-80
2023/01/03 05:33:00;;;;;;;15.73;6.93;;;;;;;;;;4884981;29;20044;-80
2023/01/03 05:35:26;;;;;;;18.00;7.10;;;;;;;;;;4885141;29;20040;-80
2023/01/03 05:37:53;;;;;;;15.10;6.30;;;;;;;;;;4900526;29;20048;-79
2023/01/03 05:40:19;;;;;;;20.10;7.22;;;;;;;;;;4900228;29;20044;-80
2023/01/03 05:42:45;;;;;;;18.83;7.15;;;;;;;;;;4900267;29;20048;-80
2023/01/03 05:45:11;;;;;;;14.38;6.22;;;;;;;;;;4900173;29;20044;-80
2023/01/03 05:47:37;;;;;;;17.20;7.32;;;;;;;;;;4900076;29;20040;-80
2023/01/03 05:50:03;;;;;;;16.88;7.50;;;;;;;;;;4900398;29;20519;-80
2023/01/03 05:52:29;;;;;;;16.60;6.63;;;;;;;;;;4900080;29;20131;-79
2023/01/03 05:54:56;;;;;;;16.45;6.80;;;;;;;;;;4899879;29;20382;-80
2023/01/03 05:57:22;;;;;;;13.15;6.85;;;;;;;;;;4900113;29;20409;-80
2023/01/03 05:59:48;;;;;;;21.30;7.47;;;;;;;;;;4884557;29;20048;-80
2023/01/03 06:02:14;;;;;;;16.77;6.97;;;;;;;;;;4884531;29;20131;-80
2023/01/03 06:04:40;;;;;;;13.73;6.78;;;;;;;;;;4900922;29;20176;-80
2023/01/03 06:07:06;;;;;;;16.77;6.28;;;;;;;;;;4906540;29;20206;-80
2023/01/03 06:09:32;;;;;;;17.70;7.28;;;;;;;;;;4890835;29;20046;-80
2023/01/03 06:11:58;;;;;;;12.02;6.35;;;;;;;;;;4890975;29;20044;-80
2023/01/03 06:14:24;;;;;;;25.63;6.65;;;;;;;;;;4890728;29;20127;-80
2023/01/03 06:19:45;;;;;;;16.88;6.63;;;;;;;;;;4892018;29;20480;-79
2023/01/03 06:22:11;;;;;;;11.60;6.85;;;;;;;;;;4890780;29;20511;-80
2023/01/03 06:24:37;;;;;;;15.43;6.60;;;;;;;;;;4891009;29;20373;-80
2023/01/03 06:27:03;;;;;;;19.58;6.85;;;;;;;;;;4891665;29;20397;-79
2023/01/03 06:29:29;;;;;;;14.20;6.90;;;;;;;;;;4891613;29;20050;-79
2023/01/03 06:31:55;;;;;;;19.13;6.70;;;;;;;;;;4907210;29;20432;-79
2023/01/03 06:34:21;;;;;;;15.90;7.18;;;;;;;;;;4908825;29;20127;-80
2023/01/03 06:36:47;;;;;;;25.38;8.43;;;;;;;;;;4906798;29;20040;-79
2023/01/03 06:39:13;;;;;;;23.13;8.85;;;;;;;;;;4906590;29;20043;-79
2023/01/03 06:41:39;;;;;;;23.05;9.57;;;;;;;;;;4906861;29;20047;-80
2023/01/03 06:44:06;;;;;;;30.83;9.57;;;;;;;;;;4906802;29;20036;-70
2023/01/03 06:54:48;;;;;;;34.45;12.98;;;;;;;;;;4921659;29;20504;-79
2023/01/03 06:57:14;;;;;;;25.15;11.55;;;;;;;;;;4906201;29;20052;-79
2023/01/03 06:59:40;;;;;;;28.95;13.45;;;;;;;;;;4905865;29;20131;-79
2023/01/03 07:02:06;;;;;;;34.00;15.32;;;;;;;;;;4906263;29;20071;-79
2023/01/03 07:04:32;;;;;;;37.95;15.85;;;;;;;;;;4906314;29;20397;-78
2023/01/03 07:06:58;;;;;;;47.63;17.42;;;;;;;;;;4890167;29;20044;-78
2023/01/03 07:09:24;;;;;;;38.35;17.10;;;;;;;;;;4890271;29;20044;-79
2023/01/03 07:11:50;;;;;;;38.00;15.68;;;;;;;;;;4890174;29;20047;-79
2023/01/03 07:14:17;;;;;;;40.05;16.98;;;;;;;;;;4890389;29;20424;-78
2023/01/03 07:16:47;;;;;;;41.25;16.67;;;3.90;99.90;;;;;;4903333;29;20451;-78
2023/01/03 07:19:17;;;;;;;36.97;16.85;;;4.00;99.90;;;;;;4902656;29;20567;-78
2023/01/03 07:21:43;;;;;;;45.38;17.35;;;;;;;;;;4902669;29;20058;-79
2023/01/03 07:24:11;;;;;;;37.63;16.95;;;3.80;99.90;;;;;;4883751;29;20501;-79
2023/01/03 07:26:38;;;;;;;41.67;17.52;;;;;;;;;;4883877;29;20051;-79
2023/01/03 07:29:05;;;;;;;45.63;18.10;;;;;;;;;;4884018;29;20048;-79
2023/01/03 07:31:31;;;;;;;46.58;18.67;;;;;;;;;;4883771;29;20076;-79
2023/01/03 07:33:58;;;;;;;50.45;19.00;;;3.70;99.90;;;;;;4868575;29;20040;-78
2023/01/03 07:36:24;;;;;;;45.38;18.88;;;;;;;;;;4883662;29;20485;-79
2023/01/03 07:38:51;;;;;;;51.42;20.17;;;;;;;;;;4883977;29;20104;-78
2023/01/03 07:41:17;;;;;;;51.95;19.13;;;;;;;;;;4884426;29;20052;-78
2023/01/03 07:43:45;;;;;;;49.63;19.58;;;;;;;;;;4899590;29;20044;-78
2023/01/03 07:46:11;;;;;;;47.53;18.85;;;;;;;;;;4901298;29;20051;-79
2023/01/03 07:48:37;;;;;;;54.35;21.38;;;;;;;;;;4902059;29;20044;-79
2023/01/03 07:51:03;;;;;;;50.80;20.30;;;;;;;;;;4900932;29;20127;-79
2023/01/03 07:53:31;;;;;;;57.80;22.27;;;;;;;;;;4886724;29;20181;-79
2023/01/03 07:56:12;;;;;;;50.80;22.15;;;;;;;;;;4901911;29;20088;-78
2023/01/03 07:58:40;;;;;;;52.22;22.15;;;3.60;99.90;;;;;;4902358;29;20039;-79
2023/01/03 08:01:13;;;;;;;64.50;21.70;;;4.00;99.90;;;;;;4901675;29;20047;-79
2023/01/03 08:03:40;;;;;;;48.30;21.10;;;3.80;99.90;;;;;;4886565;29;20461;-80
2023/01/03 08:06:09;;;;;;;54.88;22.83;;;3.80;99.90;;;;;;4901940;29;20036;-79
2023/01/03 08:08:35;;;;;;;65.13;23.35;;;3.70;99.90;;;;;;4901960;29;20036;-79
2023/01/03 08:13:47;;;;;;;57.80;24.52;;;;;;;;;;4901692;29;20044;-80
2023/01/03 08:16:14;;;;;;;68.95;24.70;;;;;;;;;;4886650;29;20044;-79
2023/01/03 08:18:41;;;;;;;56.28;23.42;;;;;;;;;;4901774;29;20050;-80
2023/01/03 08:21:08;;;;;;;56.65;22.70;;;;;;;;;;4901781;29;20040;-79
2023/01/03 08:23:34;;;;;;;71.68;25.15;;;;;;;;;;4886235;29;20051;-79
2023/01/03 08:26:06;;;;;;;53.60;25.15;;;3.60;99.90;;;;;;4901643;29;20127;-79
2023/01/03 08:28:32;;;;;;;61.40;25.03;;;;;;;;;;4885663;29;20051;-79
2023/01/03 08:31:01;;;;;;;57.83;24.27;;;3.60;99.90;;;;;;4901893;29;20062;-79
2023/01/03 08:33:32;;;;;;;61.58;25.50;;;3.60;99.90;;;;;;4901607;29;20440;-79
2023/01/03 08:36:04;;;;;;;58.28;26.17;;;3.80;99.90;;;;;;4886206;29;20040;-79
2023/01/03 08:38:39;;;;;;;61.92;27.70;;;3.60;99.90;;;;;;4901287;29;20044;-79
2023/01/03 08:41:08;;;;;;;61.75;27.00;;;;;;;;;;4901170;29;20119;-79
2023/01/03 08:43:37;;;;;;;86.47;28.63;;;3.60;99.90;;;;;;4901428;29;20048;-79
2023/01/03 08:46:05;;;;;;;71.32;28.48;;;;;;;;;;4885523;29;20044;-79
2023/01/03 08:48:31;;;;;;;61.70;27.80;;;;;;;;;;4901466;29;20047;-79
2023/01/03 08:50:57;;;;;;;61.55;26.85;;;;;;;;;;4885568;29;20048;-79
2023/01/03 08:53:23;;;;;;;69.18;26.75;;;;;;;;;;4901333;29;20048;-79
2023/01/03 08:55:50;;;;;;;67.13;25.80;;;;;;;;;;4901035;29;20056;-79
2023/01/03 08:58:17;;;;;;;72.93;24.23;;;;;;;;;;4901344;29;20380;-79
2023/01/03 09:00:43;;;;;;;60.40;24.35;;;;;;;;;;4900867;29;20123;-79
2023/01/03 09:03:09;;;;;;;56.25;25.45;;;;;;;;;;4885206;29;20480;-78
2023/01/03 09:05:35;;;;;;;85.00;26.30;;;3.60;99.90;;;;;;4885709;29;20416;-78
2023/01/03 09:08:01;;;;;;;62.90;25.13;;;;;;;;;;4885441;29;20044;-77
2023/01/03 09:10:27;;;;;;;67.20;25.00;;;;;;;;;;4899676;29;20123;-77
2023/01/03 09:12:54;;;;;;;59.97;23.98;;;;;;;;;;4900794;29;20127;-77
2023/01/03 09:15:20;;;;;;;65.90;22.45;;;;;;;;;;4885182;29;20048;-77
2023/01/03 09:17:48;;;;;;;48.88;20.63;;;;;;;;;;4883850;29;20492;-77
2023/01/03 09:20:15;;;;;;;47.22;21.27;;;;;;;;;;4900594;29;20044;-77
2023/01/03 09:22:41;;;;;;;56.28;23.33;;;;;;;;;;4885129;29;20067;-77
2023/01/03 09:25:07;;;;;;;54.25;19.77;;;4.10;99.90;;;;;;4900531;29;20044;-77
2023/01/03 09:27:33;;;;;;;59.05;19.17;;;;;;;;;;4884994;29;20047;-77
2023/01/03 09:29:59;;;;;;;49.30;20.63;;;;;;;;;;4900331;29;20050;-78
2023/01/03 09:32:25;;;;;;;49.38;21.50;;;;;;;;;;4884929;29;20051;-78
2023/01/03 09:34:51;;;;;;;48.40;20.08;;;;;;;;;;4902252;29;20054;-77
2023/01/03 09:37:17;;;;;;;76.35;20.05;;;;;;;;;;4900122;29;20516;-76
2023/01/03 09:39:43;;;;;;;46.88;19.95;;;;;;;;;;4894963;29;20448;-76
2023/01/03 09:45:28;;;;;;;55.17;19.80;;;3.90;99.90;;;;;;4899994;29;20055;-77
2023/01/03 09:47:54;;;;;;;46.25;18.83;;;;;;;;;;4884670;29;20118;-77
2023/01/03 09:50:23;;;;;;;42.25;18.38;;;3.70;99.90;;;;;;4901163;29;20051;-77
2023/01/03 10:04:16;;;;;;;43.63;19.90;;;;;;;;;;4915561;29;20416;-74
2023/01/03 10:06:58;;;;;;;51.60;17.85;;;4.00;99.90;;;;;;4881067;29;20044;-74
2023/01/03 10:09:52;;;;;;;53.28;20.38;;;3.90;99.90;;;;;;4896772;29;20044;-74
2023/01/03 10:12:37;;;;;;;72.03;21.00;;;;;;;;;;4881479;29;20043;-74
2023/01/03 10:15:03;;;;;;;49.75;20.17;;;;;;;;;;4881216;29;20044;-74
2023/01/03 10:17:38;;;;;;;56.50;21.20;;;;;;;;;;4865658;29;20052;-74
2023/01/03 10:20:04;;;;;;;61.45;22.75;;;;;;;;;;4878217;29;20512;-74
2023/01/03 10:22:31;;;;;;;55.45;20.55;;;;;;;;;;4881104;29;20123;-74
2023/01/03 10:25:09;;;;;;;66.97;24.90;;;;;;;;;;4881080;29;20493;-74
2023/01/03 10:27:45;;;;;;;69.80;22.63;;;3.90;99.90;;;;;;4881077;29;20497;-77
2023/01/03 10:30:16;;;;;;;70.20;25.10;;;;;;;;;;4881188;29;20044;-77
2023/01/03 10:32:42;;;;;;;65.30;25.65;;;;;;;;;;4884473;29;20119;-77
2023/01/03 10:35:14;;;;;;;78.68;27.27;;;;;;;;;;4899461;29;20048;-77
2023/01/03 10:37:40;;;;;;;76.63;25.90;;;;;;;;;;4899998;29;20048;-77
2023/01/03 10:40:07;;;;;;;90.57;29.00;;;;;;;;;;4899602;29;20081;-77
2023/01/03 10:42:34;;;;;;;91.63;28.30;;;;;;;;;;4884183;29;20043;-77
2023/01/03 10:45:02;;;;;;;96.93;28.65;;;;;;;;;;4897942;29;20051;-78
2023/01/03 10:47:28;;;;;;;83.15;28.58;;;;;;;;;;4899455;29;20076;-77
2023/01/03 10:49:59;;;;;;;92.13;30.48;;;4.20;99.90;;;;;;4884416;29;20052;-78
2023/01/03 10:52:29;;;;;;;110.55;33.30;;;;;;;;;;4901992;29;20044;-78
2023/01/03 10:54:59;;;;;;;107.63;31.83;;;;;;;;;;4894676;29;20527;-78
2023/01/03 10:57:39;;;;;;;107.07;33.33;;;;;;;;;;4894664;29;20056;-77
2023/01/03 11:00:31;;;;;;;113.70;33.13;;;4.50;99.90;;;;;;4902567;29;20559;-77
2023/01/03 11:03:14;;;;;;;112.82;34.35;;;4.60;99.90;;;;;;4884784;29;20040;-77
2023/01/03 11:05:42;;;;;;;112.05;35.22;;;;;;;;;;4901655;29;20120;-77
2023/01/03 11:08:16;;;;;;;131.98;37.25;;;;;;;;;;4900028;29;20040;-78
2023/01/03 11:11:08;;;;;;;138.75;37.80;;;;;;;;;;4886601;29;20511;-78
2023/01/03 11:13:42;;;;;;;124.60;38.17;;;;;;;;;;4899125;29;20064;-78
2023/01/03 11:16:19;;;;;;;140.68;39.95;;;;;;;;;;4900118;29;20048;-78
2023/01/03 11:19:02;;;;;;;131.40;37.70;;;4.90;99.90;;;;;;4886845;29;20118;-78
2023/01/03 11:21:54;;;;;;;147.43;38.28;;;5.00;99.90;;;;;;4908365;29;20051;-77
2023/01/03 11:24:26;;;;;;;140.93;40.33;;;;;;;;;;4883130;29;20044;-77
2023/01/03 11:27:13;;;;;;;135.45;39.33;;;;;;;;;;4902445;29;20040;-78
2023/01/03 11:29:58;;;;;;;141.90;39.00;;;5.00;99.90;;;;;;4887076;29;20185;-78
2023/01/03 11:32:27;;;;;;;132.10;38.00;;;;;;;;;;4902123;29;20043;-77
2023/01/03 11:35:17;;;;;;;141.30;37.30;;;5.00;99.90;;;;;;4901622;29;20401;-77
2023/01/03 11:37:51;;;;;;;130.70;39.47;;;;;;;;;;4900666;29;20086;-78
2023/01/03 11:40:20;;;;;;;126.80;38.55;;;;;;;;;;4899467;29;20091;-77
2023/01/03 11:43:16;;;;;;;130.27;38.55;;;5.30;99.90;;;;;;4902122;29;20485;-77
2023/01/03 11:45:42;;;;;;;123.40;37.42;;;;;;;;;;4900471;29;20532;-77
2023/01/03 11:48:18;;;;;;;132.77;40.38;;;;;;;;;;4886226;29;20043;-77
2023/01/03 11:50:56;;;;;;;118.63;39.65;;;5.40;99.90;;;;;;4883220;29;20118;-78
2023/01/03 11:53:28;;;;;;;155.00;41.13;;;;;;;;;;4899932;29;20481;-78
2023/01/03 11:56:07;;;;;;;141.10;41.28;;;;;;;;;;4885928;29;20056;-77
2023/01/03 11:58:36;;;;;;;117.53;38.45;;;;;;;;;;4901530;29;20480;-78
2023/01/03 12:01:26;;;;;;;132.80;40.50;;;5.40;99.90;;;;;;4901530;29;20044;-77
2023/01/03 12:04:11;;;;;;;128.93;39.17;;;;;;;;;;4900327;29;20041;-78
2023/01/03 12:07:00;;;;;;;128.82;39.97;;;5.50;99.90;;;;;;4881294;29;20036;-78
2023/01/03 12:09:32;;;;;;;128.30;40.25;;;;;;;;;;4875904;29;20052;-77
2023/01/03 12:12:13;;;;;;;133.25;40.25;;;;;;;;;;4901805;29;20051;-77
2023/01/03 12:14:43;;;;;;;131.32;40.20;;;;;;;;;;4901984;29;20135;-77
2023/01/03 12:17:12;;;;;;;122.32;38.90;;;;;;;;;;4905527;29;20129;-77
2023/01/03 12:19:42;;;;;;;134.90;39.67;;;;;;;;;;4894299;29;20054;-77
2023/01/03 12:22:14;;;;;;;124.25;39.08;;;;;;;;;;4887441;29;20484;-71
2023/01/03 12:24:40;;;;;;;121.28;39.17;;;;;;;;;;4901673;29;20509;-71
2023/01/03 12:27:16;;;;;;;130.32;40.78;;;5.90;99.90;;;;;;4901693;29;20405;-71
2023/01/03 12:30:14;;;;;;;117.78;39.85;;;5.90;99.90;;;;;;4901521;29;20107;-71
2023/01/03 12:32:52;;;;;;;108.10;36.85;;;5.70;99.90;;;;;;4885026;29;20088;-71
2023/01/03 12:35:34;;;;;;;125.97;39.78;;;5.80;99.90;;;;;;4903423;29;20126;-71
2023/01/03 12:38:03;;;;;;;111.25;40.05;;;5.70;99.90;;;;;;4901796;29;20058;-71
2023/01/03 12:40:57;;;;;;;119.80;38.08;;;5.90;99.90;;;;;;4901299;29;20056;-71
2023/01/03 12:43:44;;;;;;;115.63;37.53;;;5.90;99.90;;;;;;4901307;29;20044;-71
2023/01/03 12:46:13;;;;;;;109.78;35.65;;;;;;;;;;4899794;29;20508;-72
2023/01/03 12:48:45;;;;;;;109.60;37.78;;;5.90;99.90;;;;;;4918175;29;20046;-73
2023/01/03 12:51:13;;;;;;;121.25;38.33;;;;;;;;;;4900320;29;20040;-72
2023/01/03 12:53:43;;;;;;;105.93;35.72;;;;;;;;;;4885066;29;20377;-73
2023/01/03 12:56:15;;;;;;;104.47;36.85;;;;;;;;;;4900893;29;20392;-71
2023/01/03 12:58:59;;;;;;;108.93;35.35;;;;;;;;;;4915473;29;20075;-71
2023/01/03 13:01:37;;;;;;;97.60;35.78;;;;;;;;;;4901191;29;20043;-72
2023/01/03 13:04:18;;;;;;;107.82;36.03;;;;;;;;;;4900970;29;20621;-72
2023/01/03 13:06:49;;;;;;;101.35;34.63;;;;;;;;;;4901109;29;20098;-72
2023/01/03 13:09:15;;;;;;;95.47;35.47;;;;;;;;;;4917774;29;20099;-72
2023/01/03 13:11:44;;;;;;;100.38;34.00;;;;;;;;;;4901047;29;20115;-72
2023/01/03 13:14:17;;;;;;;94.70;35.03;;;;;;;;;;4900283;29;20051;-71
2023/01/03 13:16:51;;;;;;;102.18;33.95;;;6.10;99.90;;;;;;4917391;29;20040;-72
2023/01/03 13:19:20;;;;;;;113.15;34.88;;;;;;;;;;4885144;29;20048;-71
2023/01/03 13:21:52;;;;;;;97.68;32.78;;;6.30;99.90;;;;;;4885020;29;20051;-72
2023/01/03 13:24:37;;;;;;;99.30;32.63;;;;;;;;;;4900547;29;20083;-71
2023/01/03 13:27:15;;;;;;;92.93;31.77;;;;;;;;;;4900500;29;20284;-73
2023/01/03 13:29:44;;;;;;;109.40;32.72;;;6.50;99.90;;;;;;4884883;29;20055;-73
2023/01/03 13:32:23;;;;;;;95.63;33.47;;;;;;;;;;4915998;29;20044;-73
2023/01/03 13:34:55;;;;;;;106.93;34.15;;;;;;;;;;4899423;29;20145;-73
2023/01/03 13:37:21;;;;;;;111.80;31.05;;;;;;;;;;4897764;29;20097;-73
2023/01/03 13:39:51;;;;;;;119.65;32.28;;;;;;;;;;4884230;29;20500;-73
2023/01/03 13:42:23;;;;;;;125.10;33.88;;;;;;;;;;4899836;29;20055;-73
2023/01/03 13:44:49;;;;;;;122.43;34.97;;;;;;;;;;4899678;29;20043;-73
2023/01/03 13:47:36;;;;;;;119.90;35.90;;;;;;;;;;4898103;29;20094;-73
2023/01/03 13:50:02;;;;;;;119.63;35.25;;;;;;;;;;4898181;29;20068;-73
2023/01/03 13:52:55;;;;;;;120.47;34.00;;;;;;;;;;4915966;29;20048;-73
2023/01/03 13:55:35;;;;;;;124.07;36.03;;;;;;;;;;4899134;29;20501;-73
2023/01/03 13:58:03;;;;;;;129.10;34.55;;;6.50;99.90;;;;;;4900084;29;20132;-73
2023/01/03 14:00:30;;;;;;;115.70;35.83;;;6.70;99.90;;;;;;4899917;29;20055;-73
2023/01/03 14:02:56;;;;;;;128.80;35.40;;;;;;;;;;4899655;29;20099;-73
2023/01/03 14:05:42;;;;;;;113.88;34.50;;;6.60;99.90;;;;;;4915439;29;20072;-74
2023/01/03 14:08:49;;;;;;;119.65;33.08;;;6.70;99.90;;;;;;4900204;29;20052;-76
2023/01/03 14:11:43;;;;;;;118.13;31.50;;;6.80;99.90;;;;;;4888105;29;20052;-73
2023/01/03 14:14:13;;;;;;;124.07;33.08;;;6.60;99.90;;;;;;4899200;29;20056;-73
2023/01/03 14:16:47;;;;;;;112.97;33.00;;;6.70;99.90;;;;;;4899806;29;20145;-73
2023/01/03 14:19:16;;;;;;;106.93;32.28;;;;;;;;;;4916379;29;20036;-73
2023/01/03 14:21:46;;;;;;;107.53;30.77;;;6.80;99.90;;;;;;4883665;29;20095;-73
2023/01/03 14:24:25;;;;;;;117.55;31.83;;;6.90;99.90;;;;;;4899575;29;20040;-73
2023/01/03 14:26:51;;;;;;;105.72;30.50;;;;;;;;;;4901478;29;20036;-73
2023/01/03 14:29:22;;;;;;;91.85;31.27;;;6.80;99.90;;;;;;4903662;29;20048;-73
2023/01/03 14:31:51;;;;;;;101.90;30.35;;;;;;;;;;4896287;29;20087;-74
2023/01/03 14:34:30;;;;;;;94.30;30.15;;;7.20;99.90;;;;;;4895315;29;20056;-73
2023/01/03 14:37:11;;;;;;;102.60;30.95;;;7.10;99.90;;;;;;4918342;29;20461;-74
2023/01/03 14:39:37;;;;;;;93.20;27.63;;;;;;;;;;4903824;29;20063;-74
2023/01/03 14:42:05;;;;;;;91.47;28.45;;;7.10;99.90;;;;;;4919288;29;20052;-74
2023/01/03 14:44:32;;;;;;;98.35;29.45;;;;;;;;;;4903469;29;20122;-74
2023/01/03 14:47:02;;;;;;;82.75;30.75;;;;;;;;;;4903582;29;20113;-74
2023/01/03 14:49:33;;;;;;;89.80;29.60;;;;;;;;;;4903586;29;20393;-73
2023/01/03 14:52:05;;;;;;;84.88;28.98;;;;;;;;;;4903658;29;20059;-77
2023/01/03 14:54:31;;;;;;;84.63;27.70;;;;;;;;;;4902372;29;20111;-74
2023/01/03 14:56:57;;;;;;;79.97;27.70;;;;;;;;;;4886661;29;20444;-73
2023/01/03 14:59:23;;;;;;;79.63;27.00;;;;;;;;;;4886656;29;20560;-73
2023/01/03 15:01:50;;;;;;;73.10;26.65;;;;;;;;;;4903283;29;20036;-73
2023/01/03 15:04:17;;;;;;;86.28;27.17;;;;;;;;;;4885251;29;20058;-73
2023/01/03 15:07:01;;;;;;;72.18;24.63;;;;;;;;;;4918524;29;20539;-75
2023/01/03 15:09:31;;;;;;;74.20;25.50;;;;;;;;;;4901641;29;20131;-75
2023/01/03 15:12:00;;;;;;;81.60;25.30;;;;;;;;;;4900564;29;20048;-75